Aviation WX

[Source: ADDS]
METAR
KDUJ 081953Z AUTO 15008G15KT 10SM FEW055 BKN070 OVC090 04/M06 A2954 RMK AO2 SLP015 T00441061 =
TAF
KDUJ 081723Z 0818/0918 14012KT P6SM BKN100 FM082300 14010KT P6SM -RA OVC035 FM090100 18005KT 2SM -SHSN OVC006 FM090400 VRB03KT P6SM -SHSN OVC010 =